sensor_id;sensor_type;location;lat;lon;timestamp;pressure;altitude;pressure_sealevel;temperature;humidity
77776;BME280;66965;43.328;6.668;2023-04-01T00:01:58;101058.78;;;14.14;41.69
77776;BME280;66965;43.328;6.668;2023-04-01T00:04:23;101043.06;;;14.11;42.04
77776;BME280;66965;43.328;6.668;2023-04-01T00:06:48;101042.28;;;14.07;41.75
77776;BME280;66965;43.328;6.668;2023-04-01T00:09:14;101035.25;;;14.08;41.93
77776;BME280;66965;43.328;6.668;2023-04-01T00:11:40;101021.09;;;14.10;41.56
77776;BME280;66965;43.328;6.668;2023-04-01T00:14:07;101046.31;;;14.19;41.46
77776;BME280;66965;43.328;6.668;2023-04-01T00:16:33;101030.59;;;14.16;41.56
77776;BME280;66965;43.328;6.668;2023-04-01T00:18:58;101027.16;;;14.14;41.22
77776;BME280;66965;43.328;6.668;2023-04-01T00:21:25;101010.47;;;14.13;41.71
77776;BME280;66965;43.328;6.668;2023-04-01T00:23:51;101037.00;;;14.09;41.68
77776;BME280;66965;43.328;6.668;2023-04-01T00:26:17;101032.59;;;14.09;41.50
77776;BME280;66965;43.328;6.668;2023-04-01T00:28:45;101024.81;;;14.05;41.73
77776;BME280;66965;43.328;6.668;2023-04-01T00:31:11;101031.03;;;14.02;41.97
77776;BME280;66965;43.328;6.668;2023-04-01T00:33:38;101024.97;;;14.00;42.36
77776;BME280;66965;43.328;6.668;2023-04-01T00:36:11;101020.56;;;14.01;42.29
77776;BME280;66965;43.328;6.668;2023-04-01T00:38:37;101009.22;;;13.99;42.60
77776;BME280;66965;43.328;6.668;2023-04-01T00:41:04;101004.88;;;13.96;42.31
77776;BME280;66965;43.328;6.668;2023-04-01T00:43:30;101004.94;;;13.95;42.58
77776;BME280;66965;43.328;6.668;2023-04-01T00:45:55;101017.53;;;13.85;42.82
77776;BME280;66965;43.328;6.668;2023-04-01T00:48:33;101023.47;;;13.92;42.40
77776;BME280;66965;43.328;6.668;2023-04-01T00:51:05;100993.53;;;13.94;42.52
77776;BME280;66965;43.328;6.668;2023-04-01T00:53:32;100989.41;;;13.86;42.79
77776;BME280;66965;43.328;6.668;2023-04-01T00:56:04;101005.81;;;13.95;41.89
77776;BME280;66965;43.328;6.668;2023-04-01T00:58:35;101000.56;;;13.94;42.34
77776;BME280;66965;43.328;6.668;2023-04-01T01:01:04;100999.72;;;13.93;42.26
77776;BME280;66965;43.328;6.668;2023-04-01T01:03:29;100988.25;;;13.94;42.05
77776;BME280;66965;43.328;6.668;2023-04-01T01:11:02;100989.94;;;13.97;41.90
77776;BME280;66965;43.328;6.668;2023-04-01T01:13:43;101009.44;;;13.91;42.34
77776;BME280;66965;43.328;6.668;2023-04-01T01:16:27;100995.53;;;13.86;42.13
77776;BME280;66965;43.328;6.668;2023-04-01T01:21:46;101001.69;;;13.87;42.47
77776;BME280;66965;43.328;6.668;2023-04-01T01:24:36;100994.41;;;13.95;42.15
77776;BME280;66965;43.328;6.668;2023-04-01T01:27:12;100974.88;;;14.00;41.99
77776;BME280;66965;43.328;6.668;2023-04-01T01:30:02;100986.28;;;14.01;41.84
77776;BME280;66965;43.328;6.668;2023-04-01T01:32:55;100994.28;;;13.98;41.35
77776;BME280;66965;43.328;6.668;2023-04-01T01:35:31;100983.94;;;13.92;42.20
77776;BME280;66965;43.328;6.668;2023-04-01T01:38:08;100977.81;;;13.91;41.90
77776;BME280;66965;43.328;6.668;2023-04-01T01:40:36;100993.34;;;14.00;41.96
77776;BME280;66965;43.328;6.668;2023-04-01T01:43:07;101000.28;;;14.03;41.56
77776;BME280;66965;43.328;6.668;2023-04-01T01:45:36;100995.88;;;14.03;41.47
77776;BME280;66965;43.328;6.668;2023-04-01T01:48:05;100986.56;;;13.93;41.88
77776;BME280;66965;43.328;6.668;2023-04-01T01:50:32;101001.69;;;13.87;42.28
77776;BME280;66965;43.328;6.668;2023-04-01T01:53:07;100992.88;;;13.88;42.19
77776;BME280;66965;43.328;6.668;2023-04-01T01:55:39;100999.31;;;13.79;43.00
77776;BME280;66965;43.328;6.668;2023-04-01T02:00:53;101003.78;;;13.76;43.05
77776;BME280;66965;43.328;6.668;2023-04-01T02:03:21;101009.16;;;13.73;42.66
77776;BME280;66965;43.328;6.668;2023-04-01T02:05:50;101007.41;;;13.72;42.64
77776;BME280;66965;43.328;6.668;2023-04-01T02:08:22;101009.22;;;13.71;42.79
77776;BME280;66965;43.328;6.668;2023-04-01T02:11:01;101018.88;;;13.71;42.77
77776;BME280;66965;43.328;6.668;2023-04-01T02:16:34;101027.69;;;13.70;42.46
77776;BME280;66965;43.328;6.668;2023-04-01T02:19:03;101010.19;;;13.69;42.61
77776;BME280;66965;43.328;6.668;2023-04-01T02:21:33;101020.81;;;13.65;42.89
77776;BME280;66965;43.328;6.668;2023-04-01T02:24:02;101001.44;;;13.66;42.95
77776;BME280;66965;43.328;6.668;2023-04-01T02:26:29;101001.69;;;13.59;42.76
77776;BME280;66965;43.328;6.668;2023-04-01T02:28:56;101016.59;;;13.60;42.77
77776;BME280;66965;43.328;6.668;2023-04-01T02:31:23;101004.28;;;13.60;43.06
77776;BME280;66965;43.328;6.668;2023-04-01T02:33:48;101023.72;;;13.56;43.29
77776;BME280;66965;43.328;6.668;2023-04-01T02:36:15;100992.34;;;13.49;43.11
77776;BME280;66965;43.328;6.668;2023-04-01T02:38:43;101000.88;;;13.57;42.91
77776;BME280;66965;43.328;6.668;2023-04-01T02:41:10;101007.91;;;13.56;42.99
77776;BME280;66965;43.328;6.668;2023-04-01T02:43:35;101011.44;;;13.55;42.93
77776;BME280;66965;43.328;6.668;2023-04-01T02:46:01;101016.91;;;13.49;42.75
77776;BME280;66965;43.328;6.668;2023-04-01T02:48:27;101011.53;;;13.52;43.02
77776;BME280;66965;43.328;6.668;2023-04-01T02:50:52;101012.38;;;13.54;42.84
77776;BME280;66965;43.328;6.668;2023-04-01T02:53:18;100992.00;;;13.59;42.58
77776;BME280;66965;43.328;6.668;2023-04-01T02:55:43;100998.16;;;13.60;42.21
77776;BME280;66965;43.328;6.668;2023-04-01T02:58:10;101012.94;;;13.64;42.19
77776;BME280;66965;43.328;6.668;2023-04-01T03:00:36;101012.91;;;13.65;41.92
77776;BME280;66965;43.328;6.668;2023-04-01T03:03:03;101013.78;;;13.64;42.23
77776;BME280;66965;43.328;6.668;2023-04-01T03:05:28;101004.94;;;13.67;42.06
77776;BME280;66965;43.328;6.668;2023-04-01T03:07:54;101031.53;;;13.58;42.79
77776;BME280;66965;43.328;6.668;2023-04-01T03:10:20;101020.44;;;13.48;42.57
77776;BME280;66965;43.328;6.668;2023-04-01T03:12:45;101021.22;;;13.52;42.39
77776;BME280;66965;43.328;6.668;2023-04-01T03:15:12;101023.00;;;13.51;42.26
77776;BME280;66965;43.328;6.668;2023-04-01T03:17:40;101015.09;;;13.51;42.71
77776;BME280;66965;43.328;6.668;2023-04-01T03:20:07;101020.44;;;13.48;42.46
77776;BME280;66965;43.328;6.668;2023-04-01T03:22:34;101025.78;;;13.47;42.92
77776;BME280;66965;43.328;6.668;2023-04-01T03:25:00;101030.28;;;13.42;42.66
77776;BME280;66965;43.328;6.668;2023-04-01T03:27:26;101042.63;;;13.40;42.59
77776;BME280;66965;43.328;6.668;2023-04-01T03:29:51;101045.13;;;13.44;42.21
77776;BME280;66965;43.328;6.668;2023-04-01T03:32:16;101057.72;;;13.35;42.94
77776;BME280;66965;43.328;6.668;2023-04-01T03:34:42;101056.91;;;13.33;42.57
77776;BME280;66965;43.328;6.668;2023-04-01T03:37:07;101060.44;;;13.32;43.20
77776;BME280;66965;43.328;6.668;2023-04-01T03:39:33;101045.59;;;13.29;42.95
77776;BME280;66965;43.328;6.668;2023-04-01T03:41:58;101032.25;;;13.35;42.63
77776;BME280;66965;43.328;6.668;2023-04-01T03:44:24;101059.66;;;13.28;43.01
77776;BME280;66965;43.328;6.668;2023-04-01T03:46:50;101067.81;;;13.19;43.13
77776;BME280;66965;43.328;6.668;2023-04-01T03:49:15;101075.00;;;13.14;43.45
77776;BME280;66965;43.328;6.668;2023-04-01T03:51:42;101081.88;;;13.18;43.20
77776;BME280;66965;43.328;6.668;2023-04-01T03:54:09;101081.00;;;13.19;42.97
77776;BME280;66965;43.328;6.668;2023-04-01T03:56:35;101081.94;;;13.17;43.11
77776;BME280;66965;43.328;6.668;2023-04-01T03:59:05;101086.34;;;13.15;43.10
77776;BME280;66965;43.328;6.668;2023-04-01T04:01:32;101101.25;;;13.16;43.11
77776;BME280;66965;43.328;6.668;2023-04-01T04:03:57;101096.13;;;13.11;43.34
77776;BME280;66965;43.328;6.668;2023-04-01T04:06:23;101095.28;;;13.09;43.82
77776;BME280;66965;43.328;6.668;2023-04-01T04:08:49;101119.97;;;13.03;44.03
77776;BME280;66965;43.328;6.668;2023-04-01T04:11:15;101112.25;;;12.97;43.94
77776;BME280;66965;43.328;6.668;2023-04-01T04:13:41;101129.00;;;12.95;44.13
77776;BME280;66965;43.328;6.668;2023-04-01T04:16:07;101118.69;;;12.86;44.74
77776;BME280;66965;43.328;6.668;2023-04-01T04:18:34;101127.53;;;12.83;45.17
77776;BME280;66965;43.328;6.668;2023-04-01T04:20:59;101131.03;;;12.84;44.61
77776;BME280;66965;43.328;6.668;2023-04-01T04:23:25;101125.88;;;12.79;45.25
77776;BME280;66965;43.328;6.668;2023-04-01T04:26:05;101132.88;;;12.80;44.75
77776;BME280;66965;43.328;6.668;2023-04-01T04:28:32;101126.72;;;12.81;45.08
77776;BME280;66965;43.328;6.668;2023-04-01T04:30:57;101146.16;;;12.74;45.55
77776;BME280;66965;43.328;6.668;2023-04-01T04:33:24;101139.97;;;12.77;45.37
77776;BME280;66965;43.328;6.668;2023-04-01T04:35:50;101143.66;;;12.70;45.55
77776;BME280;66965;43.328;6.668;2023-04-01T04:38:16;101142.91;;;12.65;45.62
77776;BME280;66965;43.328;6.668;2023-04-01T04:40:42;101142.06;;;12.63;45.53
77776;BME280;66965;43.328;6.668;2023-04-01T04:43:13;101133.22;;;12.65;45.82
77776;BME280;66965;43.328;6.668;2023-04-01T04:45:38;101156.06;;;12.65;45.51
77776;BME280;66965;43.328;6.668;2023-04-01T04:48:05;101148.25;;;12.62;45.53
77776;BME280;66965;43.328;6.668;2023-04-01T04:50:30;101157.03;;;12.61;46.06
77776;BME280;66965;43.328;6.668;2023-04-01T04:52:56;101154.94;;;12.73;45.21
77776;BME280;66965;43.328;6.668;2023-04-01T04:55:21;101161.31;;;12.65;45.93
77776;BME280;66965;43.328;6.668;2023-04-01T04:57:47;101156.97;;;12.64;45.49
77776;BME280;66965;43.328;6.668;2023-04-01T05:00:12;101174.56;;;12.60;45.86
77776;BME280;66965;43.328;6.668;2023-04-01T05:02:38;101159.59;;;12.64;45.85
77776;BME280;66965;43.328;6.668;2023-04-01T05:05:04;101162.44;;;12.55;45.79
77776;BME280;66965;43.328;6.668;2023-04-01T05:07:29;101151.09;;;12.53;46.22
77776;BME280;66965;43.328;6.668;2023-04-01T05:09:55;101168.22;;;12.69;45.83
77776;BME280;66965;43.328;6.668;2023-04-01T05:12:20;101182.47;;;12.60;45.55
77776;BME280;66965;43.328;6.668;2023-04-01T05:14:46;101174.50;;;12.63;45.75
77776;BME280;66965;43.328;6.668;2023-04-01T05:17:12;101176.25;;;12.64;45.27
77776;BME280;66965;43.328;6.668;2023-04-01T05:19:38;101166.00;;;12.52;45.87
77776;BME280;66965;43.328;6.668;2023-04-01T05:22:05;101179.13;;;12.54;45.99
77776;BME280;66965;43.328;6.668;2023-04-01T05:24:30;101188.88;;;12.48;45.89
77776;BME280;66965;43.328;6.668;2023-04-01T05:26:56;101192.44;;;12.46;46.17
77776;BME280;66965;43.328;6.668;2023-04-01T05:29:26;101195.91;;;12.48;46.12
77776;BME280;66965;43.328;6.668;2023-04-01T05:31:51;101191.59;;;12.45;46.06
77776;BME280;66965;43.328;6.668;2023-04-01T05:34:17;101184.44;;;12.51;45.71
77776;BME280;66965;43.328;6.668;2023-04-01T05:36:43;101184.25;;;12.58;46.04
77776;BME280;66965;43.328;6.668;2023-04-01T05:39:10;101192.97;;;12.62;45.25
77776;BME280;66965;43.328;6.668;2023-04-01T05:41:36;101197.72;;;12.44;46.28
77776;BME280;66965;43.328;6.668;2023-04-01T05:44:02;101197.69;;;12.46;46.33
77776;BME280;66965;43.328;6.668;2023-04-01T05:46:28;101188.09;;;12.45;46.08
77776;BME280;66965;43.328;6.668;2023-04-01T05:48:53;101194.16;;;12.47;46.32
77776;BME280;66965;43.328;6.668;2023-04-01T05:51:19;101195.91;;;12.48;46.34
77776;BME280;66965;43.328;6.668;2023-04-01T05:53:44;101194.06;;;12.52;46.14
77776;BME280;66965;43.328;6.668;2023-04-01T05:56:10;101213.00;;;12.67;45.80
77776;BME280;66965;43.328;6.668;2023-04-01T05:58:36;101201.53;;;12.68;45.75
77776;BME280;66965;43.328;6.668;2023-04-01T06:01:04;101196.16;;;12.74;45.73
77776;BME280;66965;43.328;6.668;2023-04-01T06:03:30;101193.59;;;12.71;45.60
77776;BME280;66965;43.328;6.668;2023-04-01T06:05:55;101198.81;;;12.73;45.93
77776;BME280;66965;43.328;6.668;2023-04-01T06:08:21;101198.91;;;12.70;45.97
77776;BME280;66965;43.328;6.668;2023-04-01T06:22:14;101201.47;;;13.06;45.62
77776;BME280;66965;43.328;6.668;2023-04-01T06:27:48;101178.38;;;13.19;45.39
77776;BME280;66965;43.328;6.668;2023-04-01T06:42:08;101210.84;;;13.52;44.89
77776;BME280;66965;43.328;6.668;2023-04-01T06:50:32;101206.19;;;13.61;45.33
77776;BME280;66965;43.328;6.668;2023-04-01T06:53:36;101204.38;;;13.63;45.21
77776;BME280;66965;43.328;6.668;2023-04-01T06:56:09;101201.06;;;13.55;45.40
77776;BME280;66965;43.328;6.668;2023-04-01T06:58:39;101210.34;;;13.70;45.33
77776;BME280;66965;43.328;6.668;2023-04-01T07:01:09;101200.06;;;13.92;44.88
77776;BME280;66965;43.328;6.668;2023-04-01T07:03:42;101190.53;;;14.15;44.08
77776;BME280;66965;43.328;6.668;2023-04-01T07:06:16;101187.44;;;14.03;44.30
77776;BME280;66965;43.328;6.668;2023-04-01T07:08:45;101193.91;;;13.91;43.94
77776;BME280;66965;43.328;6.668;2023-04-01T07:11:24;101188.38;;;13.70;44.02
77776;BME280;66965;43.328;6.668;2023-04-01T07:17:13;101179.78;;;13.94;43.76
77776;BME280;66965;43.328;6.668;2023-04-01T07:20:29;101181.50;;;14.24;43.27
77776;BME280;66965;43.328;6.668;2023-04-01T07:22:41;101183.84;;;14.35;42.64
77776;BME280;66965;43.328;6.668;2023-04-01T07:25:18;101181.19;;;14.35;42.78
77776;BME280;66965;43.328;6.668;2023-04-01T07:27:45;101175.81;;;14.39;42.76
77776;BME280;66965;43.328;6.668;2023-04-01T07:30:20;101170.41;;;14.70;42.33
77776;BME280;66965;43.328;6.668;2023-04-01T07:33:00;101175.00;;;14.91;42.49
77776;BME280;66965;43.328;6.668;2023-04-01T07:35:40;101177.84;;;14.83;41.66
77776;BME280;66965;43.328;6.668;2023-04-01T07:46:31;101167.22;;;16.09;38.58
77776;BME280;66965;43.328;6.668;2023-04-01T07:49:14;101167.66;;;15.98;38.53
77776;BME280;66965;43.328;6.668;2023-04-01T07:54:25;101185.19;;;16.67;37.28
77776;BME280;66965;43.328;6.668;2023-04-01T07:57:00;101168.81;;;16.36;37.84
77776;BME280;66965;43.328;6.668;2023-04-01T08:13:48;101171.06;;;17.10;36.13
77776;BME280;66965;43.328;6.668;2023-04-01T08:19:00;101165.81;;;17.69;35.79
77776;BME280;66965;43.328;6.668;2023-04-01T08:21:39;101165.09;;;17.45;35.54
77776;BME280;66965;43.328;6.668;2023-04-01T08:26:59;101155.38;;;18.03;34.53
77776;BME280;66965;43.328;6.668;2023-04-01T08:30:45;101148.56;;;18.35;33.75
77776;BME280;66965;43.328;6.668;2023-04-01T08:32:41;101148.72;;;18.32;34.29
77776;BME280;66965;43.328;6.668;2023-04-01T08:38:21;101153.66;;;18.02;34.79
77776;BME280;66965;43.328;6.668;2023-04-01T08:40:55;101151.56;;;18.09;34.70
77776;BME280;66965;43.328;6.668;2023-04-01T08:57:05;101131.66;;;19.08;32.83
77776;BME280;66965;43.328;6.668;2023-04-01T09:16:46;101141.41;;;20.23;29.61
77776;BME280;66965;43.328;6.668;2023-04-01T09:25:08;101120.41;;;20.63;28.72
77776;BME280;66965;43.328;6.668;2023-04-01T09:27:45;101126.53;;;21.11;28.20
77776;BME280;66965;43.328;6.668;2023-04-01T09:39:31;101121.75;;;21.16;28.29
77776;BME280;66965;43.328;6.668;2023-04-01T09:44:35;101105.59;;;20.13;29.19
77776;BME280;66965;43.328;6.668;2023-04-01T09:47:06;101100.56;;;20.69;28.82
77776;BME280;66965;43.328;6.668;2023-04-01T10:03:23;101069.66;;;21.10;27.53
77776;BME280;66965;43.328;6.668;2023-04-01T10:28:25;101040.84;;;19.65;28.39
77776;BME280;66965;43.328;6.668;2023-04-01T10:31:19;101038.13;;;20.29;27.24
77776;BME280;66965;43.328;6.668;2023-04-01T10:50:20;101010.16;;;20.36;26.82
77776;BME280;66965;43.328;6.668;2023-04-01T11:15:47;100970.94;;;19.47;28.49
77776;BME280;66965;43.328;6.668;2023-04-01T11:32:05;100937.66;;;20.61;27.49
77776;BME280;66965;43.328;6.668;2023-04-01T11:34:50;100940.56;;;20.13;27.76
77776;BME280;66965;43.328;6.668;2023-04-01T11:37:47;100931.66;;;19.98;27.88
77776;BME280;66965;43.328;6.668;2023-04-01T11:40:20;100911.16;;;20.14;27.61
77776;BME280;66965;43.328;6.668;2023-04-01T11:43:01;100928.34;;;19.79;27.64
77776;BME280;66965;43.328;6.668;2023-04-01T11:45:35;100912.69;;;19.59;28.25
77776;BME280;66965;43.328;6.668;2023-04-01T11:53:37;100892.09;;;20.65;26.77
77776;BME280;66965;43.328;6.668;2023-04-01T11:56:19;100886.56;;;20.68;26.15
77776;BME280;66965;43.328;6.668;2023-04-01T12:13:28;100866.19;;;23.52;22.77
77776;BME280;66965;43.328;6.668;2023-04-01T12:19:14;100855.47;;;22.04;23.93
77776;BME280;66965;43.328;6.668;2023-04-01T12:21:55;100841.78;;;22.21;23.90
77776;BME280;66965;43.328;6.668;2023-04-01T12:55:12;100817.81;;;20.88;27.79
77776;BME280;66965;43.328;6.668;2023-04-01T13:00:56;100812.09;;;22.38;26.17
77776;BME280;66965;43.328;6.668;2023-04-01T13:09:06;100806.63;;;23.96;23.62
77776;BME280;66965;43.328;6.668;2023-04-01T13:27:33;100752.50;;;23.69;24.20
77776;BME280;66965;43.328;6.668;2023-04-01T13:36:18;100767.69;;;23.34;24.57
77776;BME280;66965;43.328;6.668;2023-04-01T13:47:23;100765.06;;;24.14;23.90
77776;BME280;66965;43.328;6.668;2023-04-01T13:50:52;100759.50;;;23.48;24.00
77776;BME280;66965;43.328;6.668;2023-04-01T13:56:02;100741.41;;;24.75;23.23
77776;BME280;66965;43.328;6.668;2023-04-01T13:58:43;100747.66;;;24.42;23.03
77776;BME280;66965;43.328;6.668;2023-04-01T14:01:16;100747.13;;;24.59;22.26
77776;BME280;66965;43.328;6.668;2023-04-01T14:20:33;100710.47;;;23.93;22.99
77776;BME280;66965;43.328;6.668;2023-04-01T14:25:48;100717.16;;;24.54;22.07
77776;BME280;66965;43.328;6.668;2023-04-01T14:50:53;100681.31;;;24.89;21.85
77776;BME280;66965;43.328;6.668;2023-04-01T14:55:51;100678.72;;;24.76;22.04
77776;BME280;66965;43.328;6.668;2023-04-01T14:58:18;100684.34;;;25.48;20.75
77776;BME280;66965;43.328;6.668;2023-04-01T15:04:50;100691.56;;;23.73;22.74
77776;BME280;66965;43.328;6.668;2023-04-01T15:09:48;100689.28;;;23.79;22.71
77776;BME280;66965;43.328;6.668;2023-04-01T15:12:29;100683.50;;;25.47;21.24
77776;BME280;66965;43.328;6.668;2023-04-01T15:28:24;100682.09;;;25.00;21.06
77776;BME280;66965;43.328;6.668;2023-04-01T15:31:11;100696.28;;;23.69;22.58
77776;BME280;66965;43.328;6.668;2023-04-01T15:34:21;100688.47;;;23.44;23.24
77776;BME280;66965;43.328;6.668;2023-04-01T15:37:28;100679.22;;;24.70;21.60
77776;BME280;66965;43.328;6.668;2023-04-01T15:48:02;100677.16;;;23.17;23.18
77776;BME280;66965;43.328;6.668;2023-04-01T16:01:13;100688.63;;;22.22;24.30
77776;BME280;66965;43.328;6.668;2023-04-01T16:03:59;100700.03;;;23.21;23.35
77776;BME280;66965;43.328;6.668;2023-04-01T16:12:35;100687.97;;;22.68;23.91
77776;BME280;66965;43.328;6.668;2023-04-01T16:21:01;100698.31;;;23.20;23.47
77776;BME280;66965;43.328;6.668;2023-04-01T16:23:42;100688.06;;;25.04;21.64
77776;BME280;66965;43.328;6.668;2023-04-01T16:28:52;100689.66;;;23.40;23.82
77776;BME280;66965;43.328;6.668;2023-04-01T16:33:58;100694.75;;;22.48;24.61
77776;BME280;66965;43.328;6.668;2023-04-01T16:36:30;100692.16;;;22.23;25.18
77776;BME280;66965;43.328;6.668;2023-04-01T16:41:51;100690.66;;;19.94;28.81
77776;BME280;66965;43.328;6.668;2023-04-01T16:44:20;100682.25;;;19.28;30.31
77776;BME280;66965;43.328;6.668;2023-04-01T16:47:05;100697.63;;;19.07;30.71
77776;BME280;66965;43.328;6.668;2023-04-01T16:49:39;100686.66;;;18.68;31.21
77776;BME280;66965;43.328;6.668;2023-04-01T16:54:55;100694.09;;;18.46;32.38
77776;BME280;66965;43.328;6.668;2023-04-01T16:57:27;100695.13;;;18.27;32.89
77776;BME280;66965;43.328;6.668;2023-04-01T17:02:42;100694.47;;;18.22;33.68
77776;BME280;66965;43.328;6.668;2023-04-01T17:05:13;100696.81;;;18.28;33.62
77776;BME280;66965;43.328;6.668;2023-04-01T17:08:02;100679.19;;;18.27;34.07
77776;BME280;66965;43.328;6.668;2023-04-01T17:10:54;100674.13;;;18.23;33.98
77776;BME280;66965;43.328;6.668;2023-04-01T17:16:24;100674.81;;;18.26;33.46
77776;BME280;66965;43.328;6.668;2023-04-01T17:24:38;100668.16;;;18.19;31.83
77776;BME280;66965;43.328;6.668;2023-04-01T17:27:27;100656.91;;;18.14;30.98
77776;BME280;66965;43.328;6.668;2023-04-01T17:35:39;100677.53;;;18.09;31.17
77776;BME280;66965;43.328;6.668;2023-04-01T17:38:18;100671.75;;;17.86;32.07
77776;BME280;66965;43.328;6.668;2023-04-01T18:03:55;100687.69;;;16.83;37.42
77776;BME280;66965;43.328;6.668;2023-04-01T18:14:59;100664.81;;;16.44;37.49
77776;BME280;66965;43.328;6.668;2023-04-01T18:17:52;100663.66;;;16.31;37.40
77776;BME280;66965;43.328;6.668;2023-04-01T18:26:10;100654.25;;;16.07;37.70
77776;BME280;66965;43.328;6.668;2023-04-01T18:28:47;100656.84;;;16.09;37.58
77776;BME280;66965;43.328;6.668;2023-04-01T18:31:20;100636.47;;;16.11;37.85
77776;BME280;66965;43.328;6.668;2023-04-01T18:33:59;100653.81;;;15.97;38.06
77776;BME280;66965;43.328;6.668;2023-04-01T18:36:35;100642.31;;;15.98;37.89
77776;BME280;66965;43.328;6.668;2023-04-01T18:39:04;100647.94;;;15.91;38.45
77776;BME280;66965;43.328;6.668;2023-04-01T18:41:36;100628.03;;;15.84;38.69
77776;BME280;66965;43.328;6.668;2023-04-01T18:44:34;100646.53;;;15.84;38.83
77776;BME280;66965;43.328;6.668;2023-04-01T18:47:23;100650.50;;;15.74;39.15
77776;BME280;66965;43.328;6.668;2023-04-01T18:55:42;100676.97;;;15.54;39.41
77776;BME280;66965;43.328;6.668;2023-04-01T19:01:04;100696.38;;;15.53;39.55
77776;BME280;66965;43.328;6.668;2023-04-01T19:09:14;100714.63;;;15.37;39.87
77776;BME280;66965;43.328;6.668;2023-04-01T19:25:49;100714.34;;;15.23;40.36
77776;BME280;66965;43.328;6.668;2023-04-01T19:34:34;100725.44;;;15.11;40.77
77776;BME280;66965;43.328;6.668;2023-04-01T19:37:25;100734.97;;;14.93;41.08
77776;BME280;66965;43.328;6.668;2023-04-01T19:43:02;100750.56;;;14.99;40.38
77776;BME280;66965;43.328;6.668;2023-04-01T19:48:41;100778.94;;;14.94;40.88
77776;BME280;66965;43.328;6.668;2023-04-01T19:53:59;100769.81;;;14.79;40.63
77776;BME280;66965;43.328;6.668;2023-04-01T19:56:54;100770.81;;;14.77;40.83
77776;BME280;66965;43.328;6.668;2023-04-01T20:07:19;100745.84;;;14.64;39.67
77776;BME280;66965;43.328;6.668;2023-04-01T20:09:58;100745.53;;;14.48;39.55
77776;BME280;66965;43.328;6.668;2023-04-01T20:15:02;100738.59;;;14.46;40.28
77776;BME280;66965;43.328;6.668;2023-04-01T20:17:38;100728.53;;;14.34;40.37
77776;BME280;66965;43.328;6.668;2023-04-01T20:28:02;100705.88;;;14.28;40.80
77776;BME280;66965;43.328;6.668;2023-04-01T20:30:57;100697.22;;;14.24;40.25
77776;BME280;66965;43.328;6.668;2023-04-01T20:39:07;100691.78;;;14.06;41.34
77776;BME280;66965;43.328;6.668;2023-04-01T20:50:25;100661.19;;;13.79;42.12
77776;BME280;66965;43.328;6.668;2023-04-01T20:53:11;100639.44;;;13.74;42.30
77776;BME280;66965;43.328;6.668;2023-04-01T20:58:19;100636.94;;;13.69;42.67
77776;BME280;66965;43.328;6.668;2023-04-01T21:01:07;100615.38;;;13.59;43.02
77776;BME280;66965;43.328;6.668;2023-04-01T21:03:48;100607.00;;;13.48;43.14
77776;BME280;66965;43.328;6.668;2023-04-01T21:06:27;100593.44;;;13.59;43.37
77776;BME280;66965;43.328;6.668;2023-04-01T21:16:50;100616.09;;;13.40;44.45
77776;BME280;66965;43.328;6.668;2023-04-01T21:19:33;100599.22;;;13.21;44.90
77776;BME280;66965;43.328;6.668;2023-04-01T21:41:56;100616.41;;;13.31;45.55
77776;BME280;66965;43.328;6.668;2023-04-01T22:05:57;100590.34;;;12.98;46.72
77776;BME280;66965;43.328;6.668;2023-04-01T22:11:39;100543.66;;;13.03;46.28
77776;BME280;66965;43.328;6.668;2023-04-01T22:14:53;100556.66;;;13.10;46.20
77776;BME280;66965;43.328;6.668;2023-04-01T22:25:46;100548.72;;;12.85;45.56
77776;BME280;66965;43.328;6.668;2023-04-01T22:28:21;100575.91;;;12.85;45.66
77776;BME280;66965;43.328;6.668;2023-04-01T22:30:55;100541.75;;;12.84;45.93
77776;BME280;66965;43.328;6.668;2023-04-01T22:41:37;100525.44;;;12.74;45.86
77776;BME280;66965;43.328;6.668;2023-04-01T22:44:18;100515.81;;;12.73;46.00
77776;BME280;66965;43.328;6.668;2023-04-01T22:52:19;100484.22;;;12.75;45.61
77776;BME280;66965;43.328;6.668;2023-04-01T22:54:55;100491.41;;;12.70;45.76
77776;BME280;66965;43.328;6.668;2023-04-01T23:05:27;100514.38;;;12.65;45.33
77776;BME280;66965;43.328;6.668;2023-04-01T23:10:52;100504.69;;;12.65;45.77
77776;BME280;66965;43.328;6.668;2023-04-01T23:13:41;100492.00;;;12.53;45.75
77776;BME280;66965;43.328;6.668;2023-04-01T23:16:09;100478.34;;;12.42;46.25
77776;BME280;66965;43.328;6.668;2023-04-01T23:18:58;100466.31;;;12.35;46.10
77776;BME280;66965;43.328;6.668;2023-04-01T23:21:50;100468.13;;;12.34;46.20
77776;BME280;66965;43.328;6.668;2023-04-01T23:26:56;100408.03;;;12.24;46.71
77776;BME280;66965;43.328;6.668;2023-04-01T23:29:24;100429.47;;;12.36;46.24
77776;BME280;66965;43.328;6.668;2023-04-01T23:32:02;100419.88;;;12.35;46.02
77776;BME280;66965;43.328;6.668;2023-04-01T23:34:34;100436.28;;;12.42;46.13
77776;BME280;66965;43.328;6.668;2023-04-01T23:39:39;100470.50;;;12.40;45.75
77776;BME280;66965;43.328;6.668;2023-04-01T23:44:32;100483.41;;;12.48;45.86
77776;BME280;66965;43.328;6.668;2023-04-01T23:47:00;100477.94;;;12.29;46.26
77776;BME280;66965;43.328;6.668;2023-04-01T23:49:35;100473.94;;;12.18;46.50
77776;BME280;66965;43.328;6.668;2023-04-01T23:52:09;100482.09;;;12.09;47.04
77776;BME280;66965;43.328;6.668;2023-04-01T23:54:53;100440.88;;;12.11;46.60
77776;BME280;66965;43.328;6.668;2023-04-01T23:57:27;100444.38;;;12.11;46.74
